Kenton, Ohio
Current Conditions -  °F | °C
As of 7:53 AM on Saturday 01 Nov 2014 (Local Time) from KAOH Reporting Station
Overcast Overcast  
Wind Chill: 22°   Ceiling: 1900
Heat Index: 33°   Visibility: 10mi
Dew Point: 29°   Wind: 20mph
Humidity: 85%   Direction: 350°N
Pressure: 30.19"   Gusts: 28mph
Location:  40.65°N, 83.61°W
Report Text: KAOH 011153Z AUTO 35017G24KT 10SM OVC019 01/M02 A3019 RMK AO2 SLP231 P0001 60008 7//// T00061017 10011 20006 51021 $
Loading
Personal Weather Stations






























Interactive Weather Map
Tropical Storm Tracking
New forecast layout! Learn more

10-Day Weather Forecast

Advertisements
Track Severe Weather on mobile